sensor_id;sensor_type;location;lat;lon;timestamp;pressure;altitude;pressure_sealevel;temperature;humidity
64343;BME280;50675;53.530;-6.312;2022-07-03T00:01:44;101105.97;;;16.57;58.95
64343;BME280;50675;53.530;-6.312;2022-07-03T00:04:10;101118.78;;;16.46;58.89
64343;BME280;50675;53.530;-6.312;2022-07-03T00:06:36;101112.53;;;16.41;59.13
64343;BME280;50675;53.530;-6.312;2022-07-03T00:09:05;101120.13;;;16.54;59.07
64343;BME280;50675;53.530;-6.312;2022-07-03T00:11:32;101115.50;;;16.49;58.99
64343;BME280;50675;53.530;-6.312;2022-07-03T00:13:58;101129.69;;;16.46;59.13
64343;BME280;50675;53.530;-6.312;2022-07-03T00:16:24;101122.09;;;16.33;59.15
64343;BME280;50675;53.530;-6.312;2022-07-03T00:18:50;101127.00;;;16.26;59.31
64343;BME280;50675;53.530;-6.312;2022-07-03T00:21:24;101133.00;;;16.13;59.28
64343;BME280;50675;53.530;-6.312;2022-07-03T00:24:07;101134.34;;;16.31;59.33
64343;BME280;50675;53.530;-6.312;2022-07-03T00:26:36;101130.53;;;16.32;59.46
64343;BME280;50675;53.530;-6.312;2022-07-03T00:29:03;101118.53;;;16.38;59.41
64343;BME280;50675;53.530;-6.312;2022-07-03T00:31:31;101135.44;;;16.35;59.66
64343;BME280;50675;53.530;-6.312;2022-07-03T00:33:58;101143.09;;;16.38;59.55
64343;BME280;50675;53.530;-6.312;2022-07-03T00:36:26;101139.00;;;16.15;59.58
64343;BME280;50675;53.530;-6.312;2022-07-03T00:38:54;101138.19;;;16.19;59.41
64343;BME280;50675;53.530;-6.312;2022-07-03T00:41:28;101139.28;;;16.13;59.60
64343;BME280;50675;53.530;-6.312;2022-07-03T00:43:54;101138.19;;;16.09;59.74
64343;BME280;50675;53.530;-6.312;2022-07-03T00:46:22;101139.00;;;16.10;59.59
64343;BME280;50675;53.530;-6.312;2022-07-03T00:48:51;101127.28;;;16.04;59.86
64343;BME280;50675;53.530;-6.312;2022-07-03T00:51:21;101137.38;;;16.09;59.71
64343;BME280;50675;53.530;-6.312;2022-07-03T00:53:50;101146.91;;;16.06;59.82
64343;BME280;50675;53.530;-6.312;2022-07-03T00:56:19;101138.72;;;16.11;59.89
64343;BME280;50675;53.530;-6.312;2022-07-03T00:58:50;101140.34;;;16.02;59.98
64343;BME280;50675;53.530;-6.312;2022-07-03T01:01:18;101136.28;;;16.05;59.78
64343;BME280;50675;53.530;-6.312;2022-07-03T01:03:45;101143.09;;;16.02;59.87
64343;BME280;50675;53.530;-6.312;2022-07-03T01:06:14;101141.19;;;16.03;59.75
64343;BME280;50675;53.530;-6.312;2022-07-03T01:08:49;101143.91;;;16.03;60.12
64343;BME280;50675;53.530;-6.312;2022-07-03T01:11:38;101149.09;;;15.99;60.11
64343;BME280;50675;53.530;-6.312;2022-07-03T01:16:58;101151.81;;;15.99;60.00
64343;BME280;50675;53.530;-6.312;2022-07-03T01:19:43;101150.16;;;15.88;60.02
64343;BME280;50675;53.530;-6.312;2022-07-03T01:25:23;101145.81;;;15.82;60.11
64343;BME280;50675;53.530;-6.312;2022-07-03T01:28:08;101154.78;;;15.72;60.18
64343;BME280;50675;53.530;-6.312;2022-07-03T01:33:19;101154.13;;;15.45;60.22
64343;BME280;50675;53.530;-6.312;2022-07-03T01:38:26;101162.28;;;15.30;60.35
64343;BME280;50675;53.530;-6.312;2022-07-03T01:40:55;101163.31;;;15.19;60.48
64343;BME280;50675;53.530;-6.312;2022-07-03T01:43:27;101157.81;;;15.04;60.33
64343;BME280;50675;53.530;-6.312;2022-07-03T01:45:57;101169.22;;;15.01;60.29
64343;BME280;50675;53.530;-6.312;2022-07-03T01:48:25;101155.25;;;14.82;60.56
64343;BME280;50675;53.530;-6.312;2022-07-03T01:50:51;101160.94;;;14.75;60.58
64343;BME280;50675;53.530;-6.312;2022-07-03T01:53:18;101166.41;;;14.80;60.75
64343;BME280;50675;53.530;-6.312;2022-07-03T01:55:44;101169.13;;;14.80;60.88
64343;BME280;50675;53.530;-6.312;2022-07-03T01:58:11;101165.78;;;14.73;60.87
64343;BME280;50675;53.530;-6.312;2022-07-03T02:03:06;101167.34;;;14.59;60.86
64343;BME280;50675;53.530;-6.312;2022-07-03T02:05:47;101169.53;;;14.57;61.14
64343;BME280;50675;53.530;-6.312;2022-07-03T02:09:03;101164.59;;;14.54;61.16
64343;BME280;50675;53.530;-6.312;2022-07-03T02:11:17;101173.19;;;14.41;61.04
64343;BME280;50675;53.530;-6.312;2022-07-03T02:19:11;101171.50;;;14.35;61.34
64343;BME280;50675;53.530;-6.312;2022-07-03T02:21:57;101182.97;;;14.37;61.67
64343;BME280;50675;53.530;-6.312;2022-07-03T02:24:26;101174.94;;;14.20;61.29
64343;BME280;50675;53.530;-6.312;2022-07-03T02:27:04;101176.13;;;14.34;61.63
64343;BME280;50675;53.530;-6.312;2022-07-03T02:29:33;101172.53;;;14.29;61.63
64343;BME280;50675;53.530;-6.312;2022-07-03T02:32:02;101175.81;;;14.31;61.76
64343;BME280;50675;53.530;-6.312;2022-07-03T02:34:31;101173.09;;;14.31;61.84
64343;BME280;50675;53.530;-6.312;2022-07-03T02:37:03;101171.84;;;14.38;61.91
64343;BME280;50675;53.530;-6.312;2022-07-03T02:39:45;101172.66;;;14.39;61.84
64343;BME280;50675;53.530;-6.312;2022-07-03T02:45:05;101176.94;;;14.35;62.00
64343;BME280;50675;53.530;-6.312;2022-07-03T02:50:04;101186.97;;;14.29;62.01
64343;BME280;50675;53.530;-6.312;2022-07-03T02:58:12;101179.34;;;14.31;62.23
64343;BME280;50675;53.530;-6.312;2022-07-03T03:00:57;101179.53;;;14.20;62.06
64343;BME280;50675;53.530;-6.312;2022-07-03T03:03:29;101179.75;;;14.13;62.58
64343;BME280;50675;53.530;-6.312;2022-07-03T03:06:02;101185.38;;;14.07;62.40
64343;BME280;50675;53.530;-6.312;2022-07-03T03:08:35;101185.66;;;14.05;62.25
64343;BME280;50675;53.530;-6.312;2022-07-03T03:11:07;101180.72;;;14.02;62.25
64343;BME280;50675;53.530;-6.312;2022-07-03T03:13:33;101186.44;;;14.00;62.44
64343;BME280;50675;53.530;-6.312;2022-07-03T03:16:08;101191.81;;;13.95;62.35
64343;BME280;50675;53.530;-6.312;2022-07-03T03:18:39;101188.19;;;13.85;62.43
64343;BME280;50675;53.530;-6.312;2022-07-03T03:21:08;101185.09;;;14.03;62.75
64343;BME280;50675;53.530;-6.312;2022-07-03T03:26:01;101186.19;;;14.07;62.66
64343;BME280;50675;53.530;-6.312;2022-07-03T03:28:26;101183.25;;;14.09;62.63
64343;BME280;50675;53.530;-6.312;2022-07-03T03:30:52;101179.09;;;14.01;62.50
64343;BME280;50675;53.530;-6.312;2022-07-03T03:33:19;101183.47;;;14.07;62.62
64343;BME280;50675;53.530;-6.312;2022-07-03T03:35:44;101189.19;;;14.06;62.84
64343;BME280;50675;53.530;-6.312;2022-07-03T03:38:11;101188.66;;;14.09;62.69
64343;BME280;50675;53.530;-6.312;2022-07-03T03:40:37;101182.13;;;14.05;62.81
64343;BME280;50675;53.530;-6.312;2022-07-03T03:43:03;101174.75;;;14.00;62.72
64343;BME280;50675;53.530;-6.312;2022-07-03T03:45:29;101184.97;;;13.93;62.84
64343;BME280;50675;53.530;-6.312;2022-07-03T03:47:56;101174.44;;;13.96;62.83
64343;BME280;50675;53.530;-6.312;2022-07-03T03:50:22;101178.53;;;13.99;62.79
64343;BME280;50675;53.530;-6.312;2022-07-03T03:52:48;101170.34;;;13.94;63.13
64343;BME280;50675;53.530;-6.312;2022-07-03T03:55:14;101172.03;;;14.00;62.85
64343;BME280;50675;53.530;-6.312;2022-07-03T03:57:40;101179.88;;;13.96;62.81
64343;BME280;50675;53.530;-6.312;2022-07-03T04:00:06;101177.59;;;13.88;62.88
64343;BME280;50675;53.530;-6.312;2022-07-03T04:02:32;101173.28;;;13.87;63.03
64343;BME280;50675;53.530;-6.312;2022-07-03T04:04:58;101182.50;;;13.86;63.04
64343;BME280;50675;53.530;-6.312;2022-07-03T04:07:23;101177.56;;;13.83;62.89
64343;BME280;50675;53.530;-6.312;2022-07-03T04:09:49;101179.44;;;13.78;62.97
64343;BME280;50675;53.530;-6.312;2022-07-03T04:12:15;101183.97;;;13.72;63.03
64343;BME280;50675;53.530;-6.312;2022-07-03T04:14:41;101191.06;;;13.73;63.25
64343;BME280;50675;53.530;-6.312;2022-07-03T04:17:06;101183.47;;;13.75;62.85
64343;BME280;50675;53.530;-6.312;2022-07-03T04:19:32;101182.34;;;13.71;63.03
64343;BME280;50675;53.530;-6.312;2022-07-03T04:21:58;101184.22;;;13.71;63.18
64343;BME280;50675;53.530;-6.312;2022-07-03T04:24:24;101183.75;;;13.52;63.23
64343;BME280;50675;53.530;-6.312;2022-07-03T04:26:50;101191.50;;;13.65;63.24
64343;BME280;50675;53.530;-6.312;2022-07-03T04:29:15;101188.28;;;13.68;63.18
64343;BME280;50675;53.530;-6.312;2022-07-03T04:31:41;101196.94;;;13.65;63.13
64343;BME280;50675;53.530;-6.312;2022-07-03T04:34:06;101190.66;;;13.65;63.41
64343;BME280;50675;53.530;-6.312;2022-07-03T04:36:32;101196.09;;;13.65;63.17
64343;BME280;50675;53.530;-6.312;2022-07-03T04:38:58;101192.56;;;13.64;63.29
64343;BME280;50675;53.530;-6.312;2022-07-03T04:41:24;101196.44;;;13.68;63.14
64343;BME280;50675;53.530;-6.312;2022-07-03T04:43:49;101207.84;;;13.70;63.22
64343;BME280;50675;53.530;-6.312;2022-07-03T04:46:15;101211.38;;;13.71;63.16
64343;BME280;50675;53.530;-6.312;2022-07-03T04:48:41;101216.50;;;13.67;63.32
64343;BME280;50675;53.530;-6.312;2022-07-03T04:51:06;101218.34;;;13.62;63.43
64343;BME280;50675;53.530;-6.312;2022-07-03T04:53:32;101224.84;;;13.61;63.27
64343;BME280;50675;53.530;-6.312;2022-07-03T04:55:57;101227.31;;;13.62;63.26
64343;BME280;50675;53.530;-6.312;2022-07-03T04:58:23;101225.13;;;13.64;63.39
64343;BME280;50675;53.530;-6.312;2022-07-03T05:00:49;101234.69;;;13.67;63.33
64343;BME280;50675;53.530;-6.312;2022-07-03T05:03:14;101232.53;;;13.69;63.51
64343;BME280;50675;53.530;-6.312;2022-07-03T05:05:40;101234.09;;;13.65;63.47
64343;BME280;50675;53.530;-6.312;2022-07-03T05:08:06;101237.16;;;13.68;63.52
64343;BME280;50675;53.530;-6.312;2022-07-03T05:10:31;101237.41;;;13.67;63.60
64343;BME280;50675;53.530;-6.312;2022-07-03T05:12:57;101231.44;;;13.70;63.47
64343;BME280;50675;53.530;-6.312;2022-07-03T05:15:23;101241.00;;;13.72;63.56
64343;BME280;50675;53.530;-6.312;2022-07-03T05:17:49;101240.72;;;13.74;63.39
64343;BME280;50675;53.530;-6.312;2022-07-03T05:20:15;101241.00;;;13.72;63.38
64343;BME280;50675;53.530;-6.312;2022-07-03T05:22:54;101243.72;;;13.72;63.55
64343;BME280;50675;53.530;-6.312;2022-07-03T05:25:20;101240.53;;;13.80;63.54
64343;BME280;50675;53.530;-6.312;2022-07-03T05:27:47;101241.97;;;13.88;63.75
64343;BME280;50675;53.530;-6.312;2022-07-03T05:30:13;101241.34;;;14.08;63.70
64343;BME280;50675;53.530;-6.312;2022-07-03T05:32:39;101239.25;;;14.15;63.69
64343;BME280;50675;53.530;-6.312;2022-07-03T05:35:06;101238.75;;;14.18;63.94
64343;BME280;50675;53.530;-6.312;2022-07-03T05:37:32;101243.19;;;14.29;63.80
64343;BME280;50675;53.530;-6.312;2022-07-03T05:39:58;101241.31;;;14.29;63.91
64343;BME280;50675;53.530;-6.312;2022-07-03T05:42:24;101248.19;;;14.37;63.84
64343;BME280;50675;53.530;-6.312;2022-07-03T05:44:49;101244.44;;;14.43;63.91
64343;BME280;50675;53.530;-6.312;2022-07-03T05:47:15;101254.81;;;14.51;63.91
64343;BME280;50675;53.530;-6.312;2022-07-03T05:49:40;101258.69;;;14.60;63.85
64343;BME280;50675;53.530;-6.312;2022-07-03T05:52:06;101264.22;;;14.70;63.76
64343;BME280;50675;53.530;-6.312;2022-07-03T05:54:32;101270.06;;;14.89;63.73
64343;BME280;50675;53.530;-6.312;2022-07-03T05:56:57;101265.56;;;15.05;63.87
64343;BME280;50675;53.530;-6.312;2022-07-03T05:59:23;101270.06;;;14.89;63.86
64343;BME280;50675;53.530;-6.312;2022-07-03T06:01:49;101280.84;;;15.11;63.88
64343;BME280;50675;53.530;-6.312;2022-07-03T06:04:15;101276.44;;;15.52;63.75
64343;BME280;50675;53.530;-6.312;2022-07-03T06:06:40;101279.56;;;15.86;63.83
64343;BME280;50675;53.530;-6.312;2022-07-03T06:09:06;101285.63;;;16.13;63.79
64343;BME280;50675;53.530;-6.312;2022-07-03T06:11:31;101281.03;;;16.34;63.67
64343;BME280;50675;53.530;-6.312;2022-07-03T06:13:57;101271.75;;;16.40;63.52
64343;BME280;50675;53.530;-6.312;2022-07-03T06:16:23;101288.94;;;16.50;63.29
64343;BME280;50675;53.530;-6.312;2022-07-03T06:18:49;101287.34;;;16.70;63.31
64343;BME280;50675;53.530;-6.312;2022-07-03T06:21:14;101287.91;;;16.82;63.13
64343;BME280;50675;53.530;-6.312;2022-07-03T06:23:40;101282.97;;;16.94;63.35
64343;BME280;50675;53.530;-6.312;2022-07-03T06:26:06;101299.84;;;17.06;62.81
64343;BME280;50675;53.530;-6.312;2022-07-03T06:28:31;101297.69;;;17.03;62.84
64343;BME280;50675;53.530;-6.312;2022-07-03T06:30:57;101298.78;;;16.92;62.50
64343;BME280;50675;53.530;-6.312;2022-07-03T06:33:23;101301.00;;;16.90;62.70
64343;BME280;50675;53.530;-6.312;2022-07-03T06:35:49;101301.78;;;17.11;62.53
64343;BME280;50675;53.530;-6.312;2022-07-03T06:38:15;101311.28;;;17.33;62.42
64343;BME280;50675;53.530;-6.312;2022-07-03T06:40:41;101304.66;;;17.55;62.07
64343;BME280;50675;53.530;-6.312;2022-07-03T06:43:07;101307.81;;;17.92;62.22
64343;BME280;50675;53.530;-6.312;2022-07-03T06:45:33;101309.41;;;18.03;61.87
64343;BME280;50675;53.530;-6.312;2022-07-03T06:47:58;101311.31;;;18.03;61.51
64343;BME280;50675;53.530;-6.312;2022-07-03T06:50:24;101313.22;;;18.02;61.38
64343;BME280;50675;53.530;-6.312;2022-07-03T06:52:50;101311.66;;;17.91;61.51
64343;BME280;50675;53.530;-6.312;2022-07-03T06:55:16;101311.69;;;17.81;61.30
64343;BME280;50675;53.530;-6.312;2022-07-03T06:57:42;101312.56;;;17.71;61.12
64343;BME280;50675;53.530;-6.312;2022-07-03T07:00:09;101307.97;;;17.62;60.88
64343;BME280;50675;53.530;-6.312;2022-07-03T07:02:36;101325.69;;;17.54;60.84
64343;BME280;50675;53.530;-6.312;2022-07-03T07:05:02;101324.09;;;17.43;60.75
64343;BME280;50675;53.530;-6.312;2022-07-03T07:07:28;101334.72;;;17.44;60.69
64343;BME280;50675;53.530;-6.312;2022-07-03T07:09:53;101330.06;;;17.50;60.59
64343;BME280;50675;53.530;-6.312;2022-07-03T07:12:19;101342.38;;;17.53;60.35
64343;BME280;50675;53.530;-6.312;2022-07-03T07:14:45;101329.84;;;17.41;60.47
64343;BME280;50675;53.530;-6.312;2022-07-03T07:17:11;101340.72;;;17.52;60.37
64343;BME280;50675;53.530;-6.312;2022-07-03T07:19:36;101338.84;;;17.47;60.33
64343;BME280;50675;53.530;-6.312;2022-07-03T07:22:02;101350.84;;;17.41;60.21
64343;BME280;50675;53.530;-6.312;2022-07-03T07:24:28;101353.59;;;17.36;60.21
64343;BME280;50675;53.530;-6.312;2022-07-03T07:26:54;101354.97;;;17.38;60.20
64343;BME280;50675;53.530;-6.312;2022-07-03T07:29:20;101341.84;;;17.35;60.10
64343;BME280;50675;53.530;-6.312;2022-07-03T07:31:46;101356.06;;;17.32;59.90
64343;BME280;50675;53.530;-6.312;2022-07-03T07:34:12;101324.97;;;17.18;59.80
64343;BME280;50675;53.530;-6.312;2022-07-03T07:36:39;101355.00;;;17.28;59.80
64343;BME280;50675;53.530;-6.312;2022-07-03T07:39:05;101348.97;;;17.26;59.68
64343;BME280;50675;53.530;-6.312;2022-07-03T07:41:31;101353.34;;;17.17;59.61
64343;BME280;50675;53.530;-6.312;2022-07-03T07:43:56;101353.09;;;17.19;59.62
64343;BME280;50675;53.530;-6.312;2022-07-03T07:46:22;101355.50;;;17.30;59.59
64343;BME280;50675;53.530;-6.312;2022-07-03T07:48:48;101368.63;;;17.38;59.79
64343;BME280;50675;53.530;-6.312;2022-07-03T07:51:14;101366.72;;;17.39;59.49
64343;BME280;50675;53.530;-6.312;2022-07-03T07:53:39;101362.84;;;17.65;59.65
64343;BME280;50675;53.530;-6.312;2022-07-03T07:56:06;101370.78;;;17.67;59.38
64343;BME280;50675;53.530;-6.312;2022-07-03T07:58:31;101371.59;;;17.72;59.50
64343;BME280;50675;53.530;-6.312;2022-07-03T08:00:57;101366.34;;;17.86;59.33
64343;BME280;50675;53.530;-6.312;2022-07-03T08:03:41;101378.06;;;17.91;59.40
64343;BME280;50675;53.530;-6.312;2022-07-03T08:06:25;101369.63;;;17.78;59.21
64343;BME280;50675;53.530;-6.312;2022-07-03T08:08:51;101380.28;;;17.79;59.03
64343;BME280;50675;53.530;-6.312;2022-07-03T08:11:16;101387.16;;;17.72;59.08
64343;BME280;50675;53.530;-6.312;2022-07-03T08:13:42;101377.88;;;17.58;58.88
64343;BME280;50675;53.530;-6.312;2022-07-03T08:16:08;101375.09;;;17.73;58.91
64343;BME280;50675;53.530;-6.312;2022-07-03T08:18:34;101385.50;;;17.76;58.90
64343;BME280;50675;53.530;-6.312;2022-07-03T08:21:00;101384.13;;;17.73;58.80
64343;BME280;50675;53.530;-6.312;2022-07-03T08:23:25;101386.56;;;17.80;58.87
64343;BME280;50675;53.530;-6.312;2022-07-03T08:25:51;101391.50;;;17.78;58.76
64343;BME280;50675;53.530;-6.312;2022-07-03T08:28:17;101378.13;;;17.76;58.61
64343;BME280;50675;53.530;-6.312;2022-07-03T08:30:42;101390.97;;;17.76;58.81
64343;BME280;50675;53.530;-6.312;2022-07-03T08:33:08;101383.03;;;17.79;58.67
64343;BME280;50675;53.530;-6.312;2022-07-03T08:35:34;101398.19;;;18.11;58.92
64343;BME280;50675;53.530;-6.312;2022-07-03T08:37:59;101378.47;;;18.24;58.60
64343;BME280;50675;53.530;-6.312;2022-07-03T08:40:25;101396.38;;;18.55;58.79
64343;BME280;50675;53.530;-6.312;2022-07-03T08:42:58;101400.31;;;18.78;58.72
64343;BME280;50675;53.530;-6.312;2022-07-03T08:45:29;101396.97;;;18.91;58.51
64343;BME280;50675;53.530;-6.312;2022-07-03T08:47:59;101399.25;;;18.74;58.30
64343;BME280;50675;53.530;-6.312;2022-07-03T08:50:25;101393.94;;;18.88;58.12
64343;BME280;50675;53.530;-6.312;2022-07-03T08:52:51;101405.44;;;18.90;57.87
64343;BME280;50675;53.530;-6.312;2022-07-03T08:55:18;101400.16;;;18.98;57.89
64343;BME280;50675;53.530;-6.312;2022-07-03T08:57:46;101399.00;;;19.09;57.65
64343;BME280;50675;53.530;-6.312;2022-07-03T09:00:14;101410.13;;;19.18;57.73
64343;BME280;50675;53.530;-6.312;2022-07-03T09:02:43;101394.63;;;19.08;57.85
64343;BME280;50675;53.530;-6.312;2022-07-03T09:05:11;101403.88;;;18.78;57.36
64343;BME280;50675;53.530;-6.312;2022-07-03T09:07:39;101404.75;;;18.69;57.36
64343;BME280;50675;53.530;-6.312;2022-07-03T09:10:14;101403.50;;;18.46;57.22
64343;BME280;50675;53.530;-6.312;2022-07-03T09:12:42;101397.81;;;18.38;57.14
64343;BME280;50675;53.530;-6.312;2022-07-03T09:15:10;101403.75;;;18.55;57.28
64343;BME280;50675;53.530;-6.312;2022-07-03T09:17:36;101394.34;;;18.71;57.16
64343;BME280;50675;53.530;-6.312;2022-07-03T09:20:04;101398.81;;;18.62;56.95
64343;BME280;50675;53.530;-6.312;2022-07-03T09:22:35;101413.50;;;18.71;56.95
64343;BME280;50675;53.530;-6.312;2022-07-03T09:25:08;101407.75;;;18.72;56.47
64343;BME280;50675;53.530;-6.312;2022-07-03T09:27:36;101420.63;;;18.72;56.66
64343;BME280;50675;53.530;-6.312;2022-07-03T09:30:09;101407.44;;;18.79;56.62
64343;BME280;50675;53.530;-6.312;2022-07-03T09:35:18;101416.31;;;19.00;56.56
64343;BME280;50675;53.530;-6.312;2022-07-03T09:40:17;101439.13;;;18.90;56.53
64343;BME280;50675;53.530;-6.312;2022-07-03T09:43:03;101428.94;;;18.57;56.52
64343;BME280;50675;53.530;-6.312;2022-07-03T09:45:48;101424.28;;;18.52;56.43
64343;BME280;50675;53.530;-6.312;2022-07-03T09:48:34;101443.97;;;18.54;56.58
64343;BME280;50675;53.530;-6.312;2022-07-03T09:51:16;101447.25;;;18.56;56.15
64343;BME280;50675;53.530;-6.312;2022-07-03T09:56:19;101446.34;;;18.71;56.41
64343;BME280;50675;53.530;-6.312;2022-07-03T09:59:05;101437.00;;;18.77;56.26
64343;BME280;50675;53.530;-6.312;2022-07-03T10:01:40;101434.13;;;18.97;56.26
64343;BME280;50675;53.530;-6.312;2022-07-03T10:04:17;101436.91;;;19.26;56.56
64343;BME280;50675;53.530;-6.312;2022-07-03T10:09:17;101446.84;;;19.51;56.40
64343;BME280;50675;53.530;-6.312;2022-07-03T10:11:43;101440.00;;;19.48;56.48
64343;BME280;50675;53.530;-6.312;2022-07-03T10:14:13;101432.63;;;19.49;56.22
64343;BME280;50675;53.530;-6.312;2022-07-03T10:16:41;101431.31;;;19.70;55.79
64343;BME280;50675;53.530;-6.312;2022-07-03T10:19:12;101426.78;;;19.84;56.16
64343;BME280;50675;53.530;-6.312;2022-07-03T10:21:38;101437.59;;;19.99;56.05
64343;BME280;50675;53.530;-6.312;2022-07-03T10:24:04;101440.22;;;20.09;55.92
64343;BME280;50675;53.530;-6.312;2022-07-03T10:26:30;101444.56;;;20.10;56.06
64343;BME280;50675;53.530;-6.312;2022-07-03T10:28:59;101441.31;;;20.08;55.88
64343;BME280;50675;53.530;-6.312;2022-07-03T10:31:26;101449.66;;;20.22;55.78
64343;BME280;50675;53.530;-6.312;2022-07-03T10:33:53;101447.31;;;20.10;55.25
64343;BME280;50675;53.530;-6.312;2022-07-03T10:36:21;101455.84;;;20.09;55.28
64343;BME280;50675;53.530;-6.312;2022-07-03T10:38:49;101455.34;;;20.26;55.46
64343;BME280;50675;53.530;-6.312;2022-07-03T10:41:16;101461.88;;;20.30;54.75
64343;BME280;50675;53.530;-6.312;2022-07-03T10:44:06;101452.53;;;20.36;54.90
64343;BME280;50675;53.530;-6.312;2022-07-03T10:46:50;101451.78;;;20.49;54.64
64343;BME280;50675;53.530;-6.312;2022-07-03T10:49:16;101451.22;;;20.52;54.69
64343;BME280;50675;53.530;-6.312;2022-07-03T10:54:33;101456.34;;;20.77;54.22
64343;BME280;50675;53.530;-6.312;2022-07-03T10:57:06;101462.78;;;20.86;54.40
64343;BME280;50675;53.530;-6.312;2022-07-03T11:13:05;101487.13;;;20.56;53.21
64343;BME280;50675;53.530;-6.312;2022-07-03T11:15:54;101481.78;;;20.64;53.31
64343;BME280;50675;53.530;-6.312;2022-07-03T11:25:57;101487.34;;;20.96;52.25
64343;BME280;50675;53.530;-6.312;2022-07-03T11:38:44;101479.50;;;21.27;52.23
64343;BME280;50675;53.530;-6.312;2022-07-03T11:41:13;101484.94;;;21.32;52.12
64343;BME280;50675;53.530;-6.312;2022-07-03T11:43:56;101484.88;;;21.51;51.99
64343;BME280;50675;53.530;-6.312;2022-07-03T11:46:24;101474.56;;;21.75;51.70
64343;BME280;50675;53.530;-6.312;2022-07-03T11:48:50;101479.19;;;21.94;51.59
64343;BME280;50675;53.530;-6.312;2022-07-03T11:51:29;101480.28;;;21.93;51.38
64343;BME280;50675;53.530;-6.312;2022-07-03T11:53:54;101498.91;;;21.82;51.18
64343;BME280;50675;53.530;-6.312;2022-07-03T11:56:20;101496.22;;;21.77;51.04
64343;BME280;50675;53.530;-6.312;2022-07-03T12:03:49;101500.69;;;21.27;50.93
64343;BME280;50675;53.530;-6.312;2022-07-03T12:06:16;101500.59;;;20.94;50.73
64343;BME280;50675;53.530;-6.312;2022-07-03T12:08:42;101505.31;;;20.70;50.94
64343;BME280;50675;53.530;-6.312;2022-07-03T12:11:13;101507.50;;;20.49;50.81
64343;BME280;50675;53.530;-6.312;2022-07-03T12:13:40;101492.94;;;20.25;50.93
64343;BME280;50675;53.530;-6.312;2022-07-03T12:16:11;101502.06;;;20.21;51.09
64343;BME280;50675;53.530;-6.312;2022-07-03T12:18:51;101496.00;;;20.24;51.19
64343;BME280;50675;53.530;-6.312;2022-07-03T12:21:18;101502.19;;;20.34;51.37
64343;BME280;50675;53.530;-6.312;2022-07-03T12:23:52;101483.13;;;20.48;51.33
64343;BME280;50675;53.530;-6.312;2022-07-03T12:26:32;101490.31;;;20.63;51.25
64343;BME280;50675;53.530;-6.312;2022-07-03T12:29:04;101480.00;;;20.73;51.50
64343;BME280;50675;53.530;-6.312;2022-07-03T12:31:31;101482.25;;;20.90;51.44
64343;BME280;50675;53.530;-6.312;2022-07-03T12:33:58;101482.75;;;21.11;51.52
64343;BME280;50675;53.530;-6.312;2022-07-03T12:36:24;101480.41;;;21.23;51.62
64343;BME280;50675;53.530;-6.312;2022-07-03T12:38:55;101480.75;;;21.35;51.30
64343;BME280;50675;53.530;-6.312;2022-07-03T12:41:22;101475.81;;;21.51;51.29
64343;BME280;50675;53.530;-6.312;2022-07-03T12:43:49;101476.56;;;21.70;51.31
64343;BME280;50675;53.530;-6.312;2022-07-03T12:48:48;101472.25;;;21.96;51.15
64343;BME280;50675;53.530;-6.312;2022-07-03T12:51:15;101467.28;;;22.12;51.17
64343;BME280;50675;53.530;-6.312;2022-07-03T12:53:41;101474.41;;;22.13;51.09
64343;BME280;50675;53.530;-6.312;2022-07-03T12:56:09;101472.47;;;22.13;50.85
64343;BME280;50675;53.530;-6.312;2022-07-03T12:58:39;101459.63;;;22.22;50.83
64343;BME280;50675;53.530;-6.312;2022-07-03T13:01:30;101469.00;;;22.35;50.68
64343;BME280;50675;53.530;-6.312;2022-07-03T13:03:58;101469.31;;;22.47;50.62
64343;BME280;50675;53.530;-6.312;2022-07-03T13:06:25;101477.94;;;22.54;50.60
64343;BME280;50675;53.530;-6.312;2022-07-03T13:08:56;101467.84;;;22.50;50.22
64343;BME280;50675;53.530;-6.312;2022-07-03T13:11:31;101468.88;;;22.40;50.49
64343;BME280;50675;53.530;-6.312;2022-07-03T13:16:41;101468.19;;;22.07;49.48
64343;BME280;50675;53.530;-6.312;2022-07-03T13:19:09;101469.81;;;21.95;49.44
64343;BME280;50675;53.530;-6.312;2022-07-03T13:21:35;101467.97;;;21.90;49.59
64343;BME280;50675;53.530;-6.312;2022-07-03T13:24:02;101458.81;;;21.95;49.22
64343;BME280;50675;53.530;-6.312;2022-07-03T13:26:27;101452.69;;;21.98;49.43
64343;BME280;50675;53.530;-6.312;2022-07-03T13:28:53;101456.38;;;22.07;49.17
64343;BME280;50675;53.530;-6.312;2022-07-03T13:31:19;101452.91;;;22.15;49.08
64343;BME280;50675;53.530;-6.312;2022-07-03T13:33:45;101461.66;;;22.17;48.89
64343;BME280;50675;53.530;-6.312;2022-07-03T13:36:10;101452.06;;;22.14;48.84
64343;BME280;50675;53.530;-6.312;2022-07-03T13:38:36;101450.03;;;22.20;48.72
64343;BME280;50675;53.530;-6.312;2022-07-03T13:41:02;101448.41;;;22.05;48.55
64343;BME280;50675;53.530;-6.312;2022-07-03T13:43:27;101450.56;;;22.08;48.57
64343;BME280;50675;53.530;-6.312;2022-07-03T13:45:53;101448.41;;;22.05;48.53
64343;BME280;50675;53.530;-6.312;2022-07-03T13:48:21;101456.38;;;21.93;48.47
64343;BME280;50675;53.530;-6.312;2022-07-03T13:50:49;101462.09;;;21.64;48.50
64343;BME280;50675;53.530;-6.312;2022-07-03T13:53:17;101465.94;;;21.50;48.45
64343;BME280;50675;53.530;-6.312;2022-07-03T13:55:42;101473.97;;;21.46;48.02
64343;BME280;50675;53.530;-6.312;2022-07-03T13:58:08;101460.06;;;21.56;48.21
64343;BME280;50675;53.530;-6.312;2022-07-03T14:00:34;101466.78;;;21.64;48.38
64343;BME280;50675;53.530;-6.312;2022-07-03T14:03:01;101456.31;;;21.66;48.27
64343;BME280;50675;53.530;-6.312;2022-07-03T14:05:27;101459.88;;;21.66;48.22
64343;BME280;50675;53.530;-6.312;2022-07-03T14:07:54;101461.81;;;21.66;48.06
64343;BME280;50675;53.530;-6.312;2022-07-03T14:10:23;101447.16;;;21.70;48.09
64343;BME280;50675;53.530;-6.312;2022-07-03T14:12:51;101447.53;;;21.77;48.52
64343;BME280;50675;53.530;-6.312;2022-07-03T14:15:18;101458.97;;;21.85;48.38